Time;durP1;ratioP1;P1;durP2;ratioP2;P2;SDS_P1;SDS_P2;PMS_P1;PMS_P2;Temp;Humidity;BMP_temperature;BMP_pressure;BME280_temperature;BME280_humidity;BME280_pressure;Samples;Min_cycle;Max_cycle;Signal;HPM_P1;HPM_P2
2024/01/12 00:00:45;;;;;;;31.00;14.70;;;;;;;-3.73;93.55;97209.26;109247;1272;24267;-91
2024/01/12 00:03:37;;;;;;;28.40;16.00;;;;;;;-3.74;93.54;97210.08;109209;1272;22536;-92
2024/01/12 00:06:09;;;;;;;26.00;15.60;;;;;;;-3.73;93.56;97217.10;109214;1272;22559;-93
2024/01/12 00:08:40;;;;;;;25.60;15.60;;;;;;;-3.73;93.62;97213.60;109257;1271;22576;-92
2024/01/12 00:11:12;;;;;;;35.00;17.60;;;;;;;-3.73;93.55;97217.30;109190;1267;33815;-93
2024/01/12 00:13:43;;;;;;;22.90;13.40;;;;;;;-3.74;93.56;97220.86;109215;1272;23830;-93
2024/01/12 00:16:14;;;;;;;24.70;14.00;;;;;;;-3.75;93.67;97228.91;109223;1272;22472;-91
2024/01/12 00:18:45;;;;;;;26.10;13.20;;;;;;;-3.78;93.88;97235.14;109249;1250;22699;-93
2024/01/12 00:21:16;;;;;;;28.20;16.70;;;;;;;-3.83;93.97;97235.84;109167;1266;22607;-92
2024/01/12 00:23:50;;;;;;;29.70;18.10;;;;;;;-3.83;93.99;97238.44;109221;1272;22572;-91
2024/01/12 00:26:21;;;;;;;27.90;14.70;;;;;;;-3.83;94.06;97233.57;109250;1269;22598;-93
2024/01/12 00:28:53;;;;;;;25.00;14.70;;;;;;;-3.85;94.18;97240.16;109241;1272;23461;-93
2024/01/12 00:31:24;;;;;;;34.70;19.90;;;;;;;-3.86;94.29;97243.13;109252;1266;22561;-93
2024/01/12 00:33:55;;;;;;;29.80;16.90;;;;;;;-3.90;94.31;97249.56;109233;1271;22497;-93
2024/01/12 00:36:26;;;;;;;31.90;16.00;;;;;;;-3.92;94.55;97250.67;109216;1272;25011;-93
2024/01/12 00:38:58;;;;;;;32.60;19.40;;;;;;;-3.97;94.49;97251.30;109235;1269;22681;-92
2024/01/12 00:41:30;;;;;;;28.70;15.10;;;;;;;-3.99;94.67;97262.06;109241;1266;24235;-93
2024/01/12 00:44:01;;;;;;;34.20;18.80;;;;;;;-4.00;94.82;97258.97;109233;1272;22520;-92
2024/01/12 00:46:32;;;;;;;33.80;18.40;;;;;;;-4.04;94.93;97259.54;109267;1272;23017;-91
2024/01/12 00:49:04;;;;;;;34.10;18.20;;;;;;;-4.08;95.27;97256.42;109227;1266;22553;-93
2024/01/12 00:51:35;;;;;;;30.70;17.60;;;;;;;-4.13;95.59;97263.18;109186;1253;24256;-93
2024/01/12 00:54:07;;;;;;;35.50;19.00;;;;;;;-4.15;95.80;97262.19;109234;1266;23896;-93
2024/01/12 00:56:38;;;;;;;39.00;21.70;;;;;;;-4.19;96.17;97253.70;109166;1256;23035;-93
2024/01/12 00:59:10;;;;;;;43.20;19.00;;;;;;;-4.18;96.18;97264.77;109267;1272;22528;-93
2024/01/12 01:01:41;;;;;;;42.60;21.00;;;;;;;-4.18;96.30;97267.88;109312;1272;22459;-92
2024/01/12 01:04:12;;;;;;;35.50;21.10;;;;;;;-4.19;96.48;97267.23;109312;1272;23782;-92
2024/01/12 01:06:43;;;;;;;29.60;17.30;;;;;;;-4.20;96.50;97265.00;109328;1269;24199;-93
2024/01/12 01:09:14;;;;;;;35.50;19.10;;;;;;;-4.21;96.52;97266.30;109318;1269;22992;-93
2024/01/12 01:11:47;;;;;;;37.30;19.20;;;;;;;-4.20;96.83;97263.97;109335;1266;23565;-92
2024/01/12 01:14:24;;;;;;;36.20;20.10;;;;;;;-4.20;96.89;97269.30;109320;1266;22536;-92
2024/01/12 01:16:55;;;;;;;36.20;20.60;;;;;;;-4.19;97.04;97268.98;109298;1266;22686;-93
2024/01/12 01:19:26;;;;;;;27.10;15.30;;;;;;;-4.19;97.27;97266.59;109325;1269;22844;-93
2024/01/12 01:21:57;;;;;;;32.00;20.10;;;;;;;-4.21;97.46;97267.95;109333;1272;24205;-91
2024/01/12 01:24:29;;;;;;;32.40;18.00;;;;;;;-4.20;97.79;97256.48;109306;1272;22534;-91
2024/01/12 01:27:00;;;;;;;34.50;19.00;;;;;;;-4.22;97.78;97265.33;109285;1266;22574;-91
2024/01/12 01:29:32;;;;;;;35.00;19.90;;;;;;;-4.20;97.83;97267.92;109215;1271;22562;-92
2024/01/12 01:32:03;;;;;;;31.70;17.60;;;;;;;-4.19;97.94;97267.45;109278;1272;25407;-91
2024/01/12 01:34:34;;;;;;;33.00;19.50;;;;;;;-4.18;97.83;97271.52;109310;1272;22668;-92
2024/01/12 01:37:07;;;;;;;27.60;15.80;;;;;;;-4.17;97.94;97266.90;109315;1265;22517;-93
2024/01/12 01:39:38;;;;;;;31.10;14.50;;;;;;;-4.14;98.21;97267.49;109245;1269;24242;-91
2024/01/12 01:42:10;;;;;;;32.70;16.50;;;;;;;-4.12;98.23;97267.77;109280;1250;22517;-93
2024/01/12 01:44:41;;;;;;;27.40;14.70;;;;;;;-4.11;98.26;97261.55;109288;1272;24219;-92
2024/01/12 01:47:13;;;;;;;31.60;16.80;;;;;;;-4.10;98.26;97261.48;109300;1272;24317;-92
2024/01/12 01:49:44;;;;;;;23.30;12.60;;;;;;;-4.08;98.39;97263.13;109228;1267;22565;-95
2024/01/12 01:52:18;;;;;;;28.10;14.40;;;;;;;-4.04;98.22;97264.47;109276;1272;22540;-92
2024/01/12 01:54:49;;;;;;;29.90;17.30;;;;;;;-4.01;98.32;97265.25;109368;1272;24205;-93
2024/01/12 01:57:20;;;;;;;30.00;16.00;;;;;;;-3.97;98.30;97267.77;109207;1272;24240;-92
2024/01/12 01:59:51;;;;;;;25.50;14.10;;;;;;;-3.93;98.13;97271.27;109271;1272;25317;-92
2024/01/12 02:02:23;;;;;;;23.80;14.10;;;;;;;-3.88;98.11;97268.36;109279;1272;24446;-92
2024/01/12 02:04:55;;;;;;;24.20;14.10;;;;;;;-3.85;98.10;97268.73;109287;1251;22518;-93
2024/01/12 02:07:26;;;;;;;20.30;10.40;;;;;;;-3.84;98.20;97267.67;109238;1272;22449;-93
2024/01/12 02:09:57;;;;;;;26.20;14.70;;;;;;;-3.84;98.41;97265.96;109232;1273;22553;-92
2024/01/12 02:12:29;;;;;;;23.50;14.60;;;;;;;-3.81;98.23;97271.90;109300;1272;25456;-94
2024/01/12 02:15:00;;;;;;;23.70;12.90;;;;;;;-3.78;98.20;97267.50;109319;1272;22543;-94
2024/01/12 02:17:37;;;;;;;18.60;11.10;;;;;;;-3.73;98.05;97269.76;109217;1271;22549;-93
2024/01/12 02:20:10;;;;;;;22.60;12.20;;;;;;;-3.69;98.04;97270.85;107819;1269;1759684;-92
2024/01/12 02:22:42;;;;;;;23.20;12.70;;;;;;;-3.66;97.94;97272.88;109167;1266;24286;-93
2024/01/12 02:25:15;;;;;;;20.50;11.00;;;;;;;-3.62;97.74;97274.51;109181;1272;22710;-93
2024/01/12 02:27:46;;;;;;;21.50;11.30;;;;;;;-3.60;97.66;97263.42;109247;1272;23215;-92
2024/01/12 02:30:18;;;;;;;19.20;11.50;;;;;;;-3.59;97.51;97266.61;109244;1272;58651;-94
2024/01/12 02:32:49;;;;;;;19.90;10.80;;;;;;;-3.60;97.35;97263.45;109254;1266;22521;-92
2024/01/12 02:35:20;;;;;;;21.00;11.20;;;;;;;-3.57;97.34;97265.57;109312;1272;22558;-93
2024/01/12 02:37:51;;;;;;;19.40;12.30;;;;;;;-3.54;97.22;97265.05;109245;1272;25039;-93
2024/01/12 02:40:22;;;;;;;20.40;11.50;;;;;;;-3.52;97.08;97269.98;109168;1272;68886;-93
2024/01/12 02:42:54;;;;;;;20.30;12.10;;;;;;;-3.50;97.16;97275.44;109252;1272;22475;-92
2024/01/12 02:45:26;;;;;;;19.30;11.30;;;;;;;-3.48;97.16;97271.31;109270;1272;25332;-93
2024/01/12 02:47:57;;;;;;;20.90;11.80;;;;;;;-3.49;96.95;97269.67;109299;1269;22521;-93
2024/01/12 02:50:28;;;;;;;19.90;11.30;;;;;;;-3.50;96.91;97261.09;109182;1272;44562;-93
2024/01/12 02:52:59;;;;;;;16.90;9.90;;;;;;;-3.49;96.88;97258.91;109243;1269;22578;-92
2024/01/12 02:55:30;;;;;;;18.80;10.30;;;;;;;-3.47;96.72;97262.80;109325;1272;22558;-94
2024/01/12 02:58:02;;;;;;;17.30;10.80;;;;;;;-3.46;96.63;97264.77;109293;1260;23318;-93
2024/01/12 03:00:33;;;;;;;16.80;10.80;;;;;;;-3.46;96.33;97266.73;109262;1272;28978;-93
2024/01/12 03:03:04;;;;;;;20.70;11.30;;;;;;;-3.44;96.16;97269.74;109279;1272;24158;-92
2024/01/12 03:05:35;;;;;;;16.40;10.10;;;;;;;-3.43;96.11;97264.81;109226;1266;22523;-93
2024/01/12 03:08:07;;;;;;;18.70;11.60;;;;;;;-3.40;96.02;97266.49;109236;1272;22576;-93
2024/01/12 03:10:38;;;;;;;20.60;10.40;;;;;;;-3.38;95.96;97266.85;109208;1269;40177;-92
2024/01/12 03:13:09;;;;;;;18.00;10.30;;;;;;;-3.38;95.92;97267.85;109252;1266;22517;-93
2024/01/12 03:15:40;;;;;;;17.70;9.90;;;;;;;-3.36;95.81;97270.40;109244;1272;22558;-93
2024/01/12 03:18:11;;;;;;;20.70;11.90;;;;;;;-3.36;95.65;97275.39;109192;1272;25220;-91
2024/01/12 03:20:43;;;;;;;21.40;10.00;;;;;;;-3.39;95.49;97270.41;109226;1272;48829;-92
2024/01/12 03:23:14;;;;;;;18.50;10.90;;;;;;;-3.40;95.32;97275.73;109225;1272;22655;-92
2024/01/12 03:25:45;;;;;;;16.60;9.40;;;;;;;-3.39;95.37;97277.51;109222;1272;24677;-92
2024/01/12 03:28:16;;;;;;;19.70;10.70;;;;;;;-3.38;95.36;97270.81;109233;1272;22579;-91
2024/01/12 03:30:47;;;;;;;18.70;11.60;;;;;;;-3.37;95.43;97276.34;109298;1272;46032;-92
2024/01/12 03:33:18;;;;;;;17.70;10.60;;;;;;;-3.37;95.24;97281.24;109227;1272;22528;-92
2024/01/12 03:35:49;;;;;;;16.80;9.60;;;;;;;-3.37;95.12;97272.59;109278;1272;22465;-91
2024/01/12 03:38:20;;;;;;;18.60;9.80;;;;;;;-3.38;95.02;97270.05;109137;1267;22520;-91
2024/01/12 03:40:51;;;;;;;17.60;9.50;;;;;;;-3.37;94.95;97270.51;109142;1269;77760;-91
2024/01/12 03:43:22;;;;;;;18.20;10.20;;;;;;;-3.36;95.03;97272.16;109261;1266;22587;-92
2024/01/12 03:45:54;;;;;;;19.10;10.30;;;;;;;-3.38;94.81;97278.77;109276;1272;24222;-92
2024/01/12 03:48:25;;;;;;;13.40;5.90;;;;;;;-3.38;94.81;97282.17;109213;1269;22555;-92
2024/01/12 03:50:56;;;;;;;15.60;9.30;;;;;;;-3.37;94.66;97289.38;107754;1272;2050346;-92
2024/01/12 03:53:28;;;;;;;17.20;11.10;;;;;;;-3.37;94.66;97293.16;109281;1272;22535;-93
2024/01/12 03:55:59;;;;;;;19.30;10.40;;;;;;;-3.40;94.61;97293.98;109314;1266;22525;-92
2024/01/12 03:58:30;;;;;;;17.30;8.60;;;;;;;-3.43;94.55;97299.19;109265;1272;22559;-92
2024/01/12 04:01:01;;;;;;;18.60;10.60;;;;;;;-3.46;94.32;97299.38;109224;1269;35115;-91
2024/01/12 04:03:32;;;;;;;16.80;10.10;;;;;;;-3.47;94.10;97288.98;109274;1272;25322;-92
2024/01/12 04:06:07;;;;;;;14.80;6.80;;;;;;;-3.48;94.01;97290.65;109270;1272;22617;-93
2024/01/12 04:08:38;;;;;;;15.60;8.60;;;;;;;-3.50;93.99;97283.79;109255;1254;23033;-92
2024/01/12 04:11:10;;;;;;;16.50;9.20;;;;;;;-3.53;93.80;97287.04;109242;1270;29677;-93
2024/01/12 04:13:41;;;;;;;15.60;9.00;;;;;;;-3.53;93.62;97295.45;109228;1266;22729;-93
2024/01/12 04:16:12;;;;;;;15.70;8.30;;;;;;;-3.51;93.59;97297.38;109266;1269;22518;-91
2024/01/12 04:18:44;;;;;;;18.70;9.30;;;;;;;-3.51;93.45;97300.42;109255;1266;22539;-92
2024/01/12 04:21:16;;;;;;;15.30;8.50;;;;;;;-3.52;93.37;97300.19;109209;1269;37227;-91
2024/01/12 04:23:47;;;;;;;16.30;8.90;;;;;;;-3.53;93.41;97301.39;109192;1272;22536;-92
2024/01/12 04:26:18;;;;;;;15.50;8.60;;;;;;;-3.49;93.24;97298.00;109234;1272;23914;-92
2024/01/12 04:28:49;;;;;;;12.10;6.50;;;;;;;-3.45;93.52;97297.55;109254;1272;23904;-92
2024/01/12 04:31:21;;;;;;;15.10;9.40;;;;;;;-3.44;93.21;97298.25;109244;1272;23439;-92
2024/01/12 04:33:52;;;;;;;13.90;8.50;;;;;;;-3.44;92.97;97300.48;109244;1270;22466;-92
2024/01/12 04:36:24;;;;;;;15.50;8.00;;;;;;;-3.41;93.06;97305.71;109281;1272;22591;-91
2024/01/12 04:38:57;;;;;;;13.80;8.70;;;;;;;-3.39;92.91;97305.63;109233;1272;22661;-92
2024/01/12 04:41:28;;;;;;;18.20;10.20;;;;;;;-3.37;92.99;97304.08;109184;1270;28052;-93
2024/01/12 04:43:59;;;;;;;18.10;9.90;;;;;;;-3.38;92.87;97314.34;109232;1272;22632;-92
2024/01/12 04:46:30;;;;;;;14.60;8.20;;;;;;;-3.39;92.90;97308.88;109239;1270;23552;-92
2024/01/12 04:49:02;;;;;;;13.80;7.30;;;;;;;-3.45;92.81;97322.27;109276;1269;22573;-92
2024/01/12 04:51:33;;;;;;;18.00;10.30;;;;;;;-3.50;92.72;97320.95;109206;1272;40942;-93
2024/01/12 04:54:04;;;;;;;14.60;8.70;;;;;;;-3.49;92.81;97322.38;109186;1273;25034;-92
2024/01/12 04:56:35;;;;;;;17.40;9.20;;;;;;;-3.52;92.83;97322.54;109276;1272;22571;-92
2024/01/12 04:59:06;;;;;;;18.20;10.40;;;;;;;-3.54;92.90;97324.34;109250;1272;22608;-93
2024/01/12 05:01:37;;;;;;;15.10;9.90;;;;;;;-3.57;92.97;97324.13;109196;1269;59177;-94
2024/01/12 05:04:08;;;;;;;17.00;10.40;;;;;;;-3.54;93.21;97325.09;109258;1266;22524;-93
2024/01/12 05:06:40;;;;;;;20.60;12.20;;;;;;;-3.50;93.37;97324.16;109190;1269;22659;-92
2024/01/12 05:09:12;;;;;;;19.10;11.20;;;;;;;-3.46;93.39;97320.40;109192;1272;22596;-93
2024/01/12 05:11:43;;;;;;;21.30;10.40;;;;;;;-3.45;93.23;97321.20;109285;1266;22540;-94
2024/01/12 05:14:14;;;;;;;17.90;10.00;;;;;;;-3.50;93.05;97322.28;109213;1272;23119;-94
2024/01/12 05:16:45;;;;;;;17.50;10.70;;;;;;;-3.50;93.00;97315.61;109226;1272;22571;-93
2024/01/12 05:19:16;;;;;;;17.00;9.10;;;;;;;-3.53;92.90;97325.06;109261;1272;22559;-90
2024/01/12 05:21:48;;;;;;;17.60;11.30;;;;;;;-3.60;92.91;97322.20;109246;1272;22493;-94
2024/01/12 05:24:19;;;;;;;18.00;10.90;;;;;;;-3.65;92.91;97325.33;109196;1270;25274;-92
2024/01/12 05:26:50;;;;;;;18.20;10.80;;;;;;;-3.67;92.83;97328.10;109228;1249;22528;-93
2024/01/12 05:29:21;;;;;;;17.80;10.40;;;;;;;-3.68;92.85;97325.61;109258;1272;61690;-91
2024/01/12 05:31:53;;;;;;;19.30;10.80;;;;;;;-3.69;92.84;97329.45;109308;1270;22531;-93
2024/01/12 05:34:24;;;;;;;16.30;10.10;;;;;;;-3.76;92.66;97328.22;109229;1272;24332;-93
2024/01/12 05:36:55;;;;;;;18.30;10.20;;;;;;;-3.85;92.43;97325.35;109238;1272;24237;-94
2024/01/12 05:39:27;;;;;;;18.40;11.40;;;;;;;-3.92;92.34;97335.63;109232;1270;58549;-93
2024/01/12 05:41:59;;;;;;;16.70;8.90;;;;;;;-4.00;92.23;97338.66;109274;1272;23759;-92
2024/01/12 05:44:30;;;;;;;19.60;11.40;;;;;;;-4.10;92.04;97341.11;109278;1253;22513;-94
2024/01/12 05:47:01;;;;;;;14.90;8.10;;;;;;;-4.23;92.17;97344.70;109238;1270;22563;-92
2024/01/12 05:49:32;;;;;;;17.70;8.40;;;;;;;-4.30;92.30;97339.71;109262;1270;32384;-92
2024/01/12 05:52:04;;;;;;;16.10;8.40;;;;;;;-4.28;92.63;97341.29;109219;1272;22501;-92
2024/01/12 05:54:35;;;;;;;16.10;8.40;;;;;;;-4.25;92.73;97336.09;109291;1270;22521;-93
2024/01/12 05:57:07;;;;;;;15.90;8.20;;;;;;;-4.24;92.67;97337.83;109285;1272;22527;-94
2024/01/12 05:59:38;;;;;;;17.70;8.60;;;;;;;-4.28;92.55;97340.52;109198;1272;44577;-93
2024/01/12 06:02:13;;;;;;;19.90;10.70;;;;;;;-4.29;92.53;97336.67;109283;1267;22521;-93
2024/01/12 06:04:44;;;;;;;17.40;8.10;;;;;;;-4.27;92.64;97340.80;109247;1272;23724;-93
2024/01/12 06:07:16;;;;;;;18.50;11.70;;;;;;;-4.25;92.68;97345.90;109207;1272;25418;-93
2024/01/12 06:09:48;;;;;;;17.10;10.10;;;;;;;-4.21;92.70;97348.42;109231;1269;95684;-94
2024/01/12 06:12:19;;;;;;;18.50;10.60;;;;;;;-4.14;92.76;97347.91;109260;1270;22627;-92
2024/01/12 06:14:50;;;;;;;20.10;10.60;;;;;;;-4.13;92.68;97342.56;109179;1272;22650;-92
2024/01/12 06:17:21;;;;;;;16.60;8.70;;;;;;;-4.14;92.57;97336.33;109175;1272;22643;-93
2024/01/12 06:19:55;;;;;;;15.50;8.20;;;;;;;-4.17;92.47;97340.77;109173;1272;83386;-92
2024/01/12 06:22:26;;;;;;;17.40;8.60;;;;;;;-4.16;92.46;97342.70;109282;1272;22569;-93
2024/01/12 06:24:58;;;;;;;21.90;11.50;;;;;;;-4.16;92.49;97345.05;109211;1268;25414;-93
2024/01/12 06:27:30;;;;;;;17.50;10.10;;;;;;;-4.15;92.51;97341.80;109276;1266;24891;-92
2024/01/12 06:30:01;;;;;;;18.40;9.50;;;;;;;-4.12;92.65;97344.49;109255;1269;44972;-94
2024/01/12 06:32:33;;;;;;;18.70;11.10;;;;;;;-4.10;92.51;97344.97;109265;1267;22521;-94
2024/01/12 06:35:04;;;;;;;18.20;10.40;;;;;;;-4.08;92.57;97348.24;109312;1267;25285;-93
2024/01/12 06:37:36;;;;;;;21.70;11.10;;;;;;;-4.06;92.58;97354.52;109241;1270;22520;-93
2024/01/12 06:40:09;;;;;;;18.90;10.40;;;;;;;-4.03;92.73;97349.75;109242;1272;49037;-93
2024/01/12 06:42:41;;;;;;;17.80;10.50;;;;;;;-3.98;92.64;97356.09;109336;1272;22490;-94
2024/01/12 06:45:14;;;;;;;18.60;8.50;;;;;;;-3.94;92.68;97356.05;109281;1266;22550;-93
2024/01/12 06:47:46;;;;;;;18.20;8.30;;;;;;;-3.94;92.64;97357.60;109281;1272;22582;-92
2024/01/12 06:50:17;;;;;;;19.40;11.20;;;;;;;-3.95;92.53;97364.91;109218;1272;56802;-90
2024/01/12 06:52:48;;;;;;;21.00;11.80;;;;;;;-3.93;92.64;97373.85;109195;1272;24622;-89
2024/01/12 06:55:19;;;;;;;19.70;10.70;;;;;;;-3.92;92.67;97376.13;109192;1272;24212;-91
2024/01/12 06:57:51;;;;;;;20.20;11.60;;;;;;;-3.87;92.73;97373.70;109173;1270;22582;-92
2024/01/12 07:00:24;;;;;;;21.00;12.40;;;;;;;-3.83;92.65;97378.60;109230;1272;22489;-93
2024/01/12 07:02:55;;;;;;;17.30;9.90;;;;;;;-3.82;92.75;97383.90;109228;1270;22527;-92
2024/01/12 07:05:26;;;;;;;16.30;9.70;;;;;;;-3.83;92.45;97389.86;109189;1272;22525;-92
2024/01/12 07:07:57;;;;;;;18.80;9.90;;;;;;;-3.81;92.30;97397.73;109295;1267;22529;-94
2024/01/12 07:10:28;;;;;;;16.30;8.90;;;;;;;-3.78;92.42;97390.73;109281;1272;22543;-93
2024/01/12 07:13:00;;;;;;;20.90;11.50;;;;;;;-3.81;92.26;97392.23;109307;1267;23702;-94
2024/01/12 07:15:31;;;;;;;19.00;11.10;;;;;;;-3.86;92.09;97396.52;109266;1267;22542;-93
2024/01/12 07:18:06;;;;;;;23.20;13.80;;;;;;;-3.92;92.07;97395.52;109300;1267;22693;-88
2024/01/12 07:20:37;;;;;;;28.70;16.80;;;;;;;-3.96;92.15;97395.89;109177;1272;22528;-94
2024/01/12 07:23:08;;;;;;;19.00;11.90;;;;;;;-3.95;92.18;97398.05;109260;1272;22568;-90
2024/01/12 07:25:40;;;;;;;22.00;10.90;;;;;;;-3.88;92.33;97395.76;109254;1272;23855;-92
2024/01/12 07:28:11;;;;;;;23.60;10.10;;;;;;;-3.89;92.14;97393.95;109274;1260;22614;-92
2024/01/12 07:30:42;;;;;;;21.50;13.00;;;;;;;-3.95;92.11;97402.18;109287;1272;22914;-93
2024/01/12 07:33:12;;;;;;;20.20;10.10;;;;;;;-3.92;92.22;97401.86;109369;1272;22472;-93
2024/01/12 07:35:44;;;;;;;19.80;12.20;;;;;;;-3.94;92.10;97403.61;109261;1267;22524;-95
2024/01/12 07:38:16;;;;;;;23.00;13.10;;;;;;;-3.91;92.28;97408.10;109450;1270;22488;-95
2024/01/12 07:41:07;;;;;;;19.90;12.30;;;;;;;-3.86;92.27;97409.02;109941;1244;22469;31
2024/01/12 07:46:40;;;;;;;19.10;10.60;;;;;;;-3.83;91.67;97404.34;109365;1276;22838;-96
2024/01/12 07:49:14;;;;;;;19.20;11.30;;;;;;;-3.87;91.50;97398.92;109174;1276;22570;-95
2024/01/12 07:51:46;;;;;;;16.90;9.80;;;;;;;-3.88;91.47;97402.09;109356;1276;22608;-95
2024/01/12 07:54:19;;;;;;;21.20;10.80;;;;;;;-3.88;91.56;97400.41;109050;1270;22547;-90
2024/01/12 07:56:50;;;;;;;12.90;7.60;;;;;;;-3.90;91.42;97404.77;108839;1277;22489;-92
2024/01/12 07:59:21;;;;;;;15.50;8.90;;;;;;;-3.91;91.26;97400.80;108818;1270;22601;-89
2024/01/12 08:01:56;;;;;;;12.70;7.80;;;;;;;-3.92;91.38;97393.77;108945;1276;24202;-93
2024/01/12 08:04:30;;;;;;;20.70;11.50;;;;;;;-4.01;91.15;97397.48;109424;1273;22470;-89
2024/01/12 08:07:03;;;;;;;18.00;9.60;;;;;;;-4.04;91.21;97399.96;108814;1274;23260;-89
2024/01/12 08:09:47;;;;;;;25.20;11.50;;;;;;;-3.98;91.30;97402.74;108812;1269;64562;-90
2024/01/12 08:12:21;;;;;;;15.50;9.70;;;;;;;-4.00;91.15;97402.46;108780;1276;22655;-90
2024/01/12 08:15:01;;;;;;;14.60;8.50;;;;;;;-3.98;91.18;97403.59;108852;1275;22536;-89
2024/01/12 08:17:45;;;;;;;14.30;8.70;;;;;;;-3.85;91.51;97395.30;108883;1275;23826;-90
2024/01/12 08:20:30;;;;;;;14.70;7.20;;;;;;;-3.64;91.39;97392.35;107296;1275;1915134;-92
2024/01/12 08:23:06;;;;;;;19.80;8.70;;;;;;;-3.59;91.14;97392.71;108843;1274;22614;-91
2024/01/12 08:25:41;;;;;;;20.70;10.20;;;;;;;-3.66;90.63;97388.96;108894;1276;25446;-89
2024/01/12 08:28:13;;;;;;;11.50;6.30;;;;;;;-3.77;90.37;97384.74;108958;1274;23807;-88
2024/01/12 08:30:51;;;;;;;15.20;7.70;;;;;;;-3.84;90.18;97385.98;108795;1273;86506;-88
2024/01/12 08:33:23;;;;;;;15.00;8.10;;;;;;;-3.85;89.97;97385.77;108797;1267;22529;-88
2024/01/12 08:35:56;;;;;;;19.00;9.20;;;;;;;-3.75;90.02;97389.44;108828;1278;22550;-86
2024/01/12 08:38:29;;;;;;;14.40;9.10;;;;;;;-3.65;89.98;97392.16;108868;1276;22561;-88
2024/01/12 08:41:04;;;;;;;12.10;6.90;;;;;;;-3.55;89.85;97391.59;108875;1270;52103;-90
2024/01/12 08:43:40;;;;;;;15.40;8.70;;;;;;;-3.60;89.35;97401.82;108792;1270;22586;-91
2024/01/12 08:46:13;;;;;;;13.40;7.80;;;;;;;-3.60;89.51;97410.63;108822;1276;23987;-90
2024/01/12 08:48:48;;;;;;;15.40;9.10;;;;;;;-3.48;89.78;97416.96;108907;1269;22491;-89
2024/01/12 08:51:19;;;;;;;14.90;9.00;;;;;;;-3.36;89.64;97418.02;108859;1269;27102;-90
2024/01/12 08:53:53;;;;;;;13.80;8.50;;;;;;;-3.28;89.76;97419.15;108952;1270;22517;-91
2024/01/12 08:56:24;;;;;;;16.20;8.60;;;;;;;-3.16;89.52;97420.41;108892;1275;22728;-91
2024/01/12 08:58:58;;;;;;;15.30;8.30;;;;;;;-3.07;89.45;97418.48;108895;1275;22471;-91
2024/01/12 09:01:33;;;;;;;17.70;10.90;;;;;;;-3.01;89.07;97426.50;108865;1270;71704;-89
2024/01/12 09:04:09;;;;;;;17.50;10.60;;;;;;;-3.03;89.17;97433.65;108836;1273;23320;-91
2024/01/12 09:06:40;;;;;;;19.60;10.90;;;;;;;-3.00;89.04;97434.70;108841;1276;22504;-91
2024/01/12 09:09:17;;;;;;;18.50;8.80;;;;;;;-3.01;89.09;97438.23;108916;1274;23930;-91
2024/01/12 09:11:48;;;;;;;13.80;8.70;;;;;;;-3.09;88.64;97439.13;108919;1276;38574;-91
2024/01/12 09:14:22;;;;;;;16.50;8.00;;;;;;;-3.16;88.50;97444.66;108865;1276;22532;-89
2024/01/12 09:16:56;;;;;;;16.50;9.30;;;;;;;-3.16;88.69;97443.23;108927;1271;22592;-91
2024/01/12 09:19:27;;;;;;;15.60;8.80;;;;;;;-3.11;88.58;97445.09;108883;1271;25420;-91
2024/01/12 09:22:03;;;;;;;14.30;7.70;;;;;;;-3.10;88.32;97451.88;108963;1276;23159;-91
2024/01/12 09:24:37;;;;;;;13.50;8.00;;;;;;;-3.10;88.23;97453.79;108935;1270;22527;-87
2024/01/12 09:27:11;;;;;;;16.90;8.70;;;;;;;-3.13;88.03;97451.89;108921;1273;22528;-87
2024/01/12 09:29:43;;;;;;;14.90;7.60;;;;;;;-3.17;88.03;97456.79;108890;1275;49462;-87
2024/01/12 09:32:15;;;;;;;14.00;8.40;;;;;;;-2.94;88.48;97456.35;108882;1271;25433;-86
2024/01/12 09:34:49;;;;;;;18.20;8.20;;;;;;;-2.78;88.20;97456.45;108924;1270;22479;-89
2024/01/12 09:37:25;;;;;;;16.10;9.50;;;;;;;-2.84;87.71;97457.48;108880;1273;24254;-89
2024/01/12 09:39:56;;;;;;;14.30;8.30;;;;;;;-2.78;87.58;97460.92;108857;1270;67978;-86
2024/01/12 09:42:47;;;;;;;14.80;8.10;;;;;;;-2.87;87.14;97458.68;108859;1276;22495;-88
2024/01/12 09:45:23;;;;;;;13.90;8.20;;;;;;;-2.85;87.46;97459.80;108861;1273;24034;-86
2024/01/12 09:47:57;;;;;;;16.50;8.80;;;;;;;-2.39;88.45;97464.97;108911;1270;25339;-87
2024/01/12 09:50:33;;;;;;;15.70;8.30;;;;;;;-1.95;88.42;97465.57;108799;1276;107479;-86
2024/01/12 09:53:06;;;;;;;12.80;6.60;;;;;;;-1.79;87.67;97465.30;108848;1276;24054;-85
2024/01/12 09:55:44;;;;;;;10.80;6.20;;;;;;;-1.56;87.49;97462.35;108914;1267;22750;-85
2024/01/12 09:58:20;;;;;;;16.10;7.80;;;;;;;-1.51;86.66;97461.61;108913;1272;22556;-87
2024/01/12 10:01:24;;;;;;;12.20;6.80;;;;;;;-1.38;86.47;97466.69;108854;1269;42146;-87
2024/01/12 10:04:02;;;;;;;12.30;6.00;;;;;;;-1.42;85.61;97464.27;108886;1270;22550;-86
2024/01/12 10:06:36;;;;;;;11.40;6.20;;;;;;;-1.74;85.01;97468.46;108844;1276;26542;-87
2024/01/12 10:09:16;;;;;;;11.10;6.00;;;;;;;-1.66;85.29;97471.36;108834;1276;24305;-87
2024/01/12 10:11:49;;;;;;;11.70;5.70;;;;;;;-1.63;84.69;97474.61;108772;1276;58302;-88
2024/01/12 10:14:25;;;;;;;13.30;7.00;;;;;;;-1.83;84.05;97469.30;108781;1276;24000;-88
2024/01/12 10:16:58;;;;;;;10.70;6.60;;;;;;;-1.82;82.94;97466.18;108802;1276;23802;-90
2024/01/12 10:19:33;;;;;;;11.00;5.80;;;;;;;-1.76;83.09;97468.52;107209;1275;2242882;-87
2024/01/12 10:22:17;;;;;;;13.20;6.60;;;;;;;-1.63;82.60;97463.34;108811;1273;22621;-91
2024/01/12 10:24:56;;;;;;;11.20;6.40;;;;;;;-1.72;82.26;97455.52;108812;1276;22601;-90
2024/01/12 10:27:39;;;;;;;8.30;3.80;;;;;;;-1.61;82.26;97448.20;108860;1270;22921;-90
2024/01/12 10:30:13;;;;;;;7.70;3.70;;;;;;;-1.97;80.56;97447.76;108831;1276;30107;-76
2024/01/12 10:32:52;;;;;;;8.90;4.60;;;;;;;-2.43;79.25;97442.41;108828;1254;22538;-76
2024/01/12 10:35:23;;;;;;;7.10;4.10;;;;;;;-2.57;79.21;97440.90;108797;1266;24261;-76
2024/01/12 10:37:57;;;;;;;8.60;4.20;;;;;;;-2.60;78.36;97443.10;108763;1270;22566;-76
2024/01/12 10:40:29;;;;;;;7.80;3.50;;;;;;;-2.88;77.86;97442.66;108836;1276;22640;-76
2024/01/12 10:43:07;;;;;;;11.20;5.50;;;;;;;-3.13;77.07;97438.22;108783;1273;22558;-76
2024/01/12 10:45:50;;;;;;;9.30;4.70;;;;;;;-3.13;77.52;97438.61;108641;1276;229834;-77
2024/01/12 10:48:25;;;;;;;10.80;5.70;;;;;;;-3.22;77.14;97435.65;108751;1270;22591;-75
2024/01/12 10:51:02;;;;;;;10.60;5.40;;;;;;;-3.11;77.82;97432.11;108777;1273;90045;-75
2024/01/12 10:53:38;;;;;;;11.40;6.30;;;;;;;-2.84;78.05;97426.77;108742;1276;22472;-75
2024/01/12 10:56:10;;;;;;;11.90;6.50;;;;;;;-2.90;76.74;97429.96;108834;1270;23882;-76
2024/01/12 10:58:44;;;;;;;9.80;4.50;;;;;;;-2.92;77.07;97419.68;108811;1273;25466;-76
2024/01/12 11:01:16;;;;;;;13.10;5.40;;;;;;;-3.00;76.39;97413.46;108826;1270;23290;-77
2024/01/12 11:03:47;;;;;;;11.10;5.40;;;;;;;-2.95;76.28;97408.66;108783;1270;22579;-76
2024/01/12 11:06:20;;;;;;;14.10;5.90;;;;;;;-3.03;75.95;97406.87;108783;1276;22514;-77
2024/01/12 11:08:54;;;;;;;13.30;7.20;;;;;;;-3.02;76.48;97411.01;108795;1276;22597;-76
2024/01/12 11:11:30;;;;;;;13.70;7.00;;;;;;;-2.85;76.59;97409.83;108780;1276;44337;-77
2024/01/12 11:14:02;;;;;;;11.90;6.80;;;;;;;-2.81;76.66;97408.87;108760;1271;22714;-76
2024/01/12 12:47:27;;;;;;;9.10;4.40;;;;;;;-2.88;76.65;97279.73;106222;1295;558677;-75
2024/01/12 12:50:00;;;;;;;12.90;6.10;;;;;;;-2.91;76.57;97283.36;107638;1286;99056;-75
2024/01/12 12:52:33;;;;;;;7.60;3.40;;;;;;;-2.95;76.43;97285.97;107808;1283;22540;-74
2024/01/12 12:55:05;;;;;;;9.00;5.30;;;;;;;-2.96;76.29;97279.16;107799;1286;22560;-74
2024/01/12 12:57:37;;;;;;;11.00;4.90;;;;;;;-3.00;76.24;97279.90;107807;1279;22613;-75
2024/01/12 13:00:11;;;;;;;10.70;5.30;;;;;;;-3.01;76.39;97283.05;108023;1281;22544;-75
2024/01/12 13:02:44;;;;;;;11.00;6.00;;;;;;;-3.01;76.64;97278.48;108051;1281;22640;-75
2024/01/12 13:05:17;;;;;;;10.00;4.00;;;;;;;-3.04;76.37;97286.27;107947;1274;23423;-75
2024/01/12 13:07:51;;;;;;;14.20;6.80;;;;;;;-3.02;76.46;97291.21;107910;1281;23044;-74
2024/01/12 13:10:23;;;;;;;15.00;6.60;;;;;;;-2.94;76.92;97290.30;108065;1277;25442;-74